Time;durP1;ratioP1;P1;durP2;ratioP2;P2;SDS_P1;SDS_P2;PMS_P1;PMS_P2;Temp;Humidity;BMP_temperature;BMP_pressure;BME280_temperature;BME280_humidity;BME280_pressure;Samples;Min_cycle;Max_cycle;Signal;HPM_P1;HPM_P2
2021/11/29 00:01:00;;;;;;;50.25;25.30;;;1.60;99.90;;;;;;4962273;28;20047;-71
2021/11/29 00:03:29;;;;;;;54.35;24.25;;;1.60;99.90;;;;;;4964162;28;20125;-72
2021/11/29 00:05:56;;;;;;;43.58;24.33;;;1.60;99.90;;;;;;4961006;28;20054;-71
2021/11/29 00:08:24;;;;;;;49.22;24.02;;;1.60;99.90;;;;;;4962267;28;20097;-71
2021/11/29 00:10:51;;;;;;;52.45;22.83;;;1.60;99.90;;;;;;4979570;28;20065;-72
2021/11/29 00:13:18;;;;;;;56.92;23.48;;;1.50;99.90;;;;;;4963371;28;20073;-72
2021/11/29 00:15:45;;;;;;;44.33;22.52;;;1.60;99.90;;;;;;4962466;28;20053;-72
2021/11/29 00:18:13;;;;;;;46.88;24.05;;;1.50;99.90;;;;;;4947142;28;20133;-70
2021/11/29 00:20:43;;;;;;;43.20;24.33;;;1.60;99.90;;;;;;4962678;28;20035;-70
2021/11/29 00:23:13;;;;;;;62.88;26.80;;;1.60;99.90;;;;;;4960832;28;20047;-73
2021/11/29 00:25:41;;;;;;;44.40;24.00;;;1.70;99.90;;;;;;4958771;28;20043;-70
2021/11/29 00:28:09;;;;;;;39.13;23.05;;;1.70;99.90;;;;;;4946562;28;20047;-72
2021/11/29 00:30:37;;;;;;;44.60;22.90;;;1.70;99.90;;;;;;4961387;28;20046;-71
2021/11/29 00:33:04;;;;;;;46.15;23.33;;;1.70;99.90;;;;;;4966714;28;20066;-70
2021/11/29 00:35:31;;;;;;;54.55;27.77;;;1.70;99.90;;;;;;4960213;28;20101;-69
2021/11/29 00:37:59;;;;;;;48.15;26.08;;;1.70;99.90;;;;;;4975303;28;20503;-70
2021/11/29 00:40:26;;;;;;;52.20;27.63;;;1.60;99.90;;;;;;4963638;28;20474;-73
2021/11/29 00:42:53;;;;;;;57.10;26.30;;;1.60;99.90;;;;;;4961397;28;20399;-70
2021/11/29 00:45:20;;;;;;;54.97;27.80;;;1.60;99.90;;;;;;4961993;28;20054;-70
2021/11/29 00:47:47;;;;;;;55.65;26.63;;;1.60;99.90;;;;;;4961544;28;20043;-72
2021/11/29 00:50:14;;;;;;;50.97;25.77;;;1.50;99.90;;;;;;4943803;28;20320;-72
2021/11/29 00:52:43;;;;;;;40.83;23.48;;;1.60;99.90;;;;;;4955091;28;20518;-71
2021/11/29 00:55:12;;;;;;;47.90;22.83;;;1.60;99.90;;;;;;4959213;28;20678;-72
2021/11/29 00:57:40;;;;;;;82.85;26.33;;;1.50;99.90;;;;;;4976951;28;20400;-71
2021/11/29 01:00:14;;;;;;;40.00;20.67;;;1.60;99.90;;;;;;4976938;28;20061;-73
2021/11/29 01:02:41;;;;;;;34.70;19.77;;;1.50;99.90;;;;;;4963343;28;20166;-71
2021/11/29 01:05:09;;;;;;;35.67;18.63;;;1.50;99.90;;;;;;4963266;28;20043;-72
2021/11/29 01:07:36;;;;;;;33.40;17.67;;;1.50;99.90;;;;;;4957689;28;20058;-72
2021/11/29 01:10:05;;;;;;;42.38;20.98;;;1.40;99.90;;;;;;4961182;28;20061;-71
2021/11/29 01:12:32;;;;;;;47.75;22.10;;;1.40;99.90;;;;;;4963329;28;20055;-72
2021/11/29 01:14:59;;;;;;;48.33;23.35;;;1.40;99.90;;;;;;4944381;28;20071;-72
2021/11/29 01:17:27;;;;;;;48.22;25.23;;;1.30;99.90;;;;;;4961220;28;20050;-69
2021/11/29 01:19:53;;;;;;;53.92;24.95;;;1.30;99.90;;;;;;4942880;28;20054;-69
2021/11/29 01:22:20;;;;;;;53.33;25.40;;;1.30;99.90;;;;;;4961389;28;20046;-71
2021/11/29 01:24:47;;;;;;;61.40;27.35;;;1.30;99.90;;;;;;4974614;28;20539;-70
2021/11/29 01:27:14;;;;;;;53.80;25.85;;;1.30;99.90;;;;;;4960285;28;20577;-70
2021/11/29 01:29:41;;;;;;;56.33;25.42;;;1.30;99.90;;;;;;4962584;28;20225;-70
2021/11/29 01:32:08;;;;;;;64.15;27.30;;;1.20;99.90;;;;;;4960610;28;20408;-71
2021/11/29 01:34:35;;;;;;;54.17;27.17;;;1.20;99.90;;;;;;4960884;28;20058;-70
2021/11/29 01:37:02;;;;;;;65.60;28.33;;;1.20;99.90;;;;;;4958923;28;20083;-70
2021/11/29 01:39:30;;;;;;;56.88;27.20;;;1.20;99.90;;;;;;4943083;28;20062;-71
2021/11/29 01:41:56;;;;;;;56.60;27.08;;;1.20;99.90;;;;;;4961375;28;20054;-71
2021/11/29 01:44:26;;;;;;;64.75;28.33;;;1.20;99.90;;;;;;4962915;28;20047;-70
2021/11/29 01:46:53;;;;;;;62.45;28.90;;;1.10;99.90;;;;;;4942716;28;20523;-71
2021/11/29 01:49:20;;;;;;;62.35;29.33;;;1.10;99.90;;;;;;4960650;28;20058;-70
2021/11/29 01:51:47;;;;;;;59.42;27.95;;;1.20;99.90;;;;;;4960699;28;20057;-69
2021/11/29 01:54:14;;;;;;;66.10;30.65;;;1.20;99.90;;;;;;4960279;28;20423;-71
2021/11/29 01:56:41;;;;;;;57.40;27.55;;;1.10;99.90;;;;;;4943688;28;20043;-70
2021/11/29 01:59:08;;;;;;;61.35;28.23;;;1.10;99.90;;;;;;4958321;28;20102;-70
2021/11/29 02:01:35;;;;;;;55.08;27.55;;;1.20;99.90;;;;;;4943178;28;20043;-69
2021/11/29 02:04:02;;;;;;;47.17;22.67;;;1.10;99.90;;;;;;4962336;28;20138;-69
2021/11/29 02:06:33;;;;;;;43.97;21.23;;;1.10;99.90;;;;;;4960367;28;20045;-72
2021/11/29 02:09:00;;;;;;;40.40;21.40;;;1.10;99.90;;;;;;4938413;28;20055;-70
2021/11/29 02:11:28;;;;;;;40.53;19.48;;;1.10;99.90;;;;;;4960174;28;20046;-71
2021/11/29 02:13:56;;;;;;;40.80;20.13;;;1.00;99.90;;;;;;4960501;28;20089;-69
2021/11/29 02:16:23;;;;;;;48.45;21.30;;;1.00;99.90;;;;;;4943316;28;20062;-70
2021/11/29 02:18:51;;;;;;;48.13;23.27;;;1.00;99.90;;;;;;4959939;28;20777;-69
2021/11/29 02:21:21;;;;;;;56.85;25.80;;;1.00;99.90;;;;;;4958514;28;20522;-70
2021/11/29 02:24:06;;;;;;;51.78;26.63;;;1.00;99.90;;;;;;4945900;28;20473;-69
2021/11/29 02:26:37;;;;;;;43.97;23.50;;;1.00;99.90;;;;;;4980076;28;20054;-71
2021/11/29 02:29:07;;;;;;;58.95;25.52;;;1.00;99.90;;;;;;4963109;28;20515;-69
2021/11/29 02:31:38;;;;;;;63.17;27.15;;;0.90;99.90;;;;;;4960568;28;20533;-70
2021/11/29 02:34:11;;;;;;;53.03;25.73;;;0.90;99.90;;;;;;4977775;28;20474;-69
2021/11/29 02:36:40;;;;;;;53.95;26.58;;;0.90;99.90;;;;;;4958781;28;20043;-71
2021/11/29 02:39:09;;;;;;;46.97;23.25;;;0.90;99.90;;;;;;4943706;28;20049;-72
2021/11/29 02:41:36;;;;;;;47.20;23.45;;;0.90;99.90;;;;;;4960556;28;20284;-71
2021/11/29 02:44:03;;;;;;;54.58;26.42;;;1.00;99.90;;;;;;4962287;28;20031;-70
2021/11/29 02:46:30;;;;;;;50.78;28.30;;;0.90;99.90;;;;;;4965023;28;20074;-70
2021/11/29 02:48:58;;;;;;;52.25;28.13;;;1.00;99.90;;;;;;4964512;28;20519;-70
2021/11/29 02:51:32;;;;;;;53.72;27.67;;;1.00;99.90;;;;;;4966957;28;20066;-72
2021/11/29 02:54:10;;;;;;;50.53;26.13;;;0.90;99.90;;;;;;4964588;28;20060;-69
2021/11/29 02:56:39;;;;;;;60.45;30.70;;;0.90;99.90;;;;;;4963984;28;20305;-72
2021/11/29 02:59:08;;;;;;;63.20;33.95;;;0.90;99.90;;;;;;4959841;28;20135;-71
2021/11/29 03:01:37;;;;;;;59.70;31.88;;;0.90;99.90;;;;;;4944729;28;20069;-70
2021/11/29 03:04:04;;;;;;;76.68;36.75;;;0.90;99.90;;;;;;4962888;28;20039;-70
2021/11/29 03:06:31;;;;;;;70.25;35.63;;;0.90;99.90;;;;;;4960934;28;20047;-71
2021/11/29 03:08:58;;;;;;;65.43;34.88;;;0.90;99.90;;;;;;4943707;28;20047;-70
2021/11/29 03:11:27;;;;;;;71.05;34.20;;;0.90;99.90;;;;;;4945348;28;20098;-70
2021/11/29 03:13:55;;;;;;;68.38;35.78;;;0.90;99.90;;;;;;4962673;28;20515;-69
2021/11/29 03:16:22;;;;;;;60.97;31.55;;;0.90;99.90;;;;;;4946559;28;20232;-70
2021/11/29 03:18:49;;;;;;;61.38;32.95;;;0.90;99.90;;;;;;4963410;28;20051;-70
2021/11/29 03:21:19;;;;;;;62.55;34.20;;;0.80;99.90;;;;;;4961142;28;20055;-70
2021/11/29 03:23:49;;;;;;;66.38;32.58;;;0.80;99.90;;;;;;4961311;28;20456;-70
2021/11/29 03:26:18;;;;;;;63.50;34.42;;;0.80;99.90;;;;;;4946293;28;20051;-70
2021/11/29 03:28:53;;;;;;;52.38;28.40;;;0.80;99.90;;;;;;4941519;28;20571;-69
2021/11/29 03:31:21;;;;;;;49.13;28.63;;;0.80;99.90;;;;;;4962045;28;20058;-69
2021/11/29 03:33:48;;;;;;;48.60;26.75;;;0.80;99.90;;;;;;4945643;28;20150;-68
2021/11/29 03:36:16;;;;;;;56.38;29.67;;;0.80;99.90;;;;;;4944339;28;20433;-68
2021/11/29 03:38:43;;;;;;;57.95;30.67;;;0.80;99.90;;;;;;4959869;28;20094;-69
2021/11/29 03:41:10;;;;;;;53.45;27.63;;;0.80;99.90;;;;;;4945404;28;20067;-68
2021/11/29 03:43:38;;;;;;;57.22;32.20;;;0.80;99.90;;;;;;4946940;28;20042;-69
2021/11/29 03:46:06;;;;;;;62.72;34.35;;;0.80;99.90;;;;;;4961720;28;20619;-69
2021/11/29 03:48:34;;;;;;;63.80;33.13;;;0.80;99.90;;;;;;4976276;28;20047;-70
2021/11/29 03:51:01;;;;;;;61.95;33.05;;;0.70;99.90;;;;;;4962649;28;20303;-68
2021/11/29 03:53:28;;;;;;;57.80;30.33;;;0.60;99.90;;;;;;4961819;28;20058;-71
2021/11/29 03:55:56;;;;;;;55.95;32.05;;;0.60;99.90;;;;;;4960270;28;20514;-69
2021/11/29 03:58:23;;;;;;;59.97;30.88;;;0.60;99.90;;;;;;4961039;28;21333;-71
2021/11/29 04:00:51;;;;;;;61.58;30.70;;;0.60;99.90;;;;;;4959763;28;20253;-69
2021/11/29 04:03:17;;;;;;;54.80;28.75;;;0.60;99.90;;;;;;4961888;28;20514;-72
2021/11/29 04:05:44;;;;;;;48.95;28.17;;;0.60;99.90;;;;;;4975417;28;20047;-70
2021/11/29 04:08:12;;;;;;;53.45;31.45;;;0.50;99.90;;;;;;4956634;28;20070;-71
2021/11/29 04:10:39;;;;;;;58.03;29.77;;;0.60;99.90;;;;;;4960315;28;20294;-70
2021/11/29 04:13:08;;;;;;;59.70;31.67;;;0.60;99.90;;;;;;4958260;28;20113;-70
2021/11/29 04:15:35;;;;;;;55.08;28.98;;;0.60;99.90;;;;;;4960462;28;20530;-70
2021/11/29 04:18:04;;;;;;;52.20;29.90;;;0.60;99.90;;;;;;4961943;28;20573;-70
2021/11/29 04:20:31;;;;;;;58.60;32.50;;;0.70;99.90;;;;;;4957708;28;20459;-70
2021/11/29 04:22:58;;;;;;;61.00;32.08;;;0.60;99.90;;;;;;4960559;28;20065;-70
2021/11/29 04:25:28;;;;;;;62.00;31.65;;;0.60;99.90;;;;;;4960873;28;20055;-70
2021/11/29 04:27:56;;;;;;;54.55;30.92;;;0.60;99.90;;;;;;4944180;28;20108;-71
2021/11/29 04:30:25;;;;;;;48.20;27.17;;;0.60;99.90;;;;;;4960090;28;20059;-69
2021/11/29 04:32:57;;;;;;;49.45;27.77;;;0.60;99.90;;;;;;4961272;28;20058;-70
2021/11/29 04:35:25;;;;;;;51.65;29.60;;;0.50;99.90;;;;;;4962054;28;20062;-70
2021/11/29 04:37:53;;;;;;;55.58;28.63;;;0.50;99.90;;;;;;4957990;28;20222;-69
2021/11/29 04:40:20;;;;;;;54.63;28.38;;;0.60;99.90;;;;;;4957580;28;20664;-70
2021/11/29 04:42:47;;;;;;;57.38;30.02;;;0.60;99.90;;;;;;4963011;28;20062;-70
2021/11/29 04:45:14;;;;;;;52.78;29.27;;;0.60;99.90;;;;;;4962138;28;20046;-70
2021/11/29 04:47:41;;;;;;;52.00;28.20;;;0.60;99.90;;;;;;4962981;28;20062;-71
2021/11/29 04:50:08;;;;;;;48.97;27.42;;;0.60;99.90;;;;;;4961840;28;20058;-70
2021/11/29 04:52:35;;;;;;;51.08;28.27;;;0.50;99.90;;;;;;4962575;28;20141;-71
2021/11/29 04:55:06;;;;;;;51.00;27.92;;;0.50;99.90;;;;;;4944763;28;20054;-70
2021/11/29 04:57:33;;;;;;;48.55;27.95;;;0.60;99.90;;;;;;4959031;28;20066;-69
2021/11/29 05:00:01;;;;;;;50.33;26.48;;;0.60;99.90;;;;;;4959528;28;20113;-70
2021/11/29 05:02:28;;;;;;;44.60;25.95;;;0.60;99.90;;;;;;4960500;28;20046;-69
2021/11/29 05:04:55;;;;;;;45.70;25.63;;;0.60;99.90;;;;;;4960837;28;20055;-71
2021/11/29 05:07:22;;;;;;;48.30;26.25;;;0.60;99.90;;;;;;4956833;28;20051;-70
2021/11/29 05:09:49;;;;;;;50.58;26.23;;;0.60;99.90;;;;;;4957513;28;20483;-70
2021/11/29 05:12:16;;;;;;;41.95;24.52;;;0.60;99.90;;;;;;4960303;28;20061;-70
2021/11/29 05:14:44;;;;;;;44.42;22.45;;;0.50;99.90;;;;;;4958678;28;20039;-71
2021/11/29 05:17:16;;;;;;;38.15;23.50;;;0.50;99.90;;;;;;4959574;28;20069;-69
2021/11/29 05:19:43;;;;;;;38.75;24.17;;;0.50;99.90;;;;;;4975900;28;20059;-69
2021/11/29 05:22:10;;;;;;;42.35;24.45;;;0.50;99.90;;;;;;4941917;28;20257;-70
2021/11/29 05:24:37;;;;;;;40.92;21.55;;;0.50;99.90;;;;;;4960835;28;20050;-70
2021/11/29 05:27:04;;;;;;;35.92;21.13;;;0.50;99.90;;;;;;4960744;28;20125;-69
2021/11/29 05:29:31;;;;;;;40.03;21.92;;;0.50;99.90;;;;;;4960770;28;20141;-70
2021/11/29 05:31:58;;;;;;;33.28;22.45;;;0.50;99.90;;;;;;4958541;28;20051;-68
2021/11/29 05:34:25;;;;;;;38.58;22.73;;;0.50;99.90;;;;;;4962025;28;20304;-68
2021/11/29 05:37:12;;;;;;;36.17;20.73;;;0.50;99.90;;;;;;4957692;28;20055;-68
2021/11/29 05:39:39;;;;;;;33.72;19.98;;;0.50;99.90;;;;;;4973764;28;20121;-69
2021/11/29 05:42:06;;;;;;;34.60;19.88;;;0.50;99.90;;;;;;4959554;28;20353;-69
2021/11/29 05:44:33;;;;;;;35.17;21.38;;;0.50;99.90;;;;;;4945112;28;20522;-70
2021/11/29 05:47:00;;;;;;;33.53;19.40;;;0.50;99.90;;;;;;4958831;28;20047;-68
2021/11/29 05:49:27;;;;;;;38.55;20.77;;;0.50;99.90;;;;;;4960136;28;20054;-70
2021/11/29 05:51:55;;;;;;;37.80;21.65;;;0.50;99.90;;;;;;4977035;28;20415;-69
2021/11/29 05:54:22;;;;;;;37.78;20.60;;;0.50;99.90;;;;;;4976391;28;20046;-69
2021/11/29 05:56:49;;;;;;;35.35;20.17;;;0.60;99.90;;;;;;4960916;28;20087;-70
2021/11/29 05:59:18;;;;;;;36.20;19.73;;;0.60;99.90;;;;;;4959610;28;20301;-70
2021/11/29 06:01:45;;;;;;;33.10;20.20;;;0.50;99.90;;;;;;4960652;28;20069;-71
2021/11/29 06:04:12;;;;;;;32.05;21.88;;;0.50;99.90;;;;;;4960998;28;20047;-71
2021/11/29 06:06:38;;;;;;;35.92;21.00;;;0.60;99.90;;;;;;4958865;28;20047;-69
2021/11/29 06:09:05;;;;;;;35.67;21.58;;;0.60;99.90;;;;;;4941551;28;20082;-70
2021/11/29 06:11:32;;;;;;;38.13;22.20;;;0.50;99.90;;;;;;4959956;28;20039;-70
2021/11/29 06:13:59;;;;;;;36.45;20.98;;;0.50;99.90;;;;;;4960949;28;20336;-67
2021/11/29 06:16:26;;;;;;;36.17;21.90;;;0.50;99.90;;;;;;4959767;28;20065;-70
2021/11/29 06:18:53;;;;;;;41.85;22.23;;;0.40;99.90;;;;;;4959856;28;20133;-71
2021/11/29 06:21:20;;;;;;;33.90;21.63;;;0.50;99.90;;;;;;4944261;28;20075;-70
2021/11/29 06:23:48;;;;;;;40.10;24.38;;;0.40;99.90;;;;;;4960153;28;20504;-70
2021/11/29 06:26:17;;;;;;;40.05;23.38;;;0.50;99.90;;;;;;4961967;28;20200;-68
2021/11/29 06:28:44;;;;;;;43.28;21.98;;;0.50;99.90;;;;;;4961599;28;20051;-70
2021/11/29 06:31:11;;;;;;;37.78;22.38;;;0.50;99.90;;;;;;4959050;28;20306;-69
2021/11/29 06:33:39;;;;;;;36.03;22.98;;;0.50;99.90;;;;;;4961024;28;20057;-70
2021/11/29 06:36:07;;;;;;;38.75;22.52;;;0.50;99.90;;;;;;4942911;28;20086;-69
2021/11/29 06:38:35;;;;;;;39.28;22.83;;;0.50;99.90;;;;;;4958437;28;20060;-71
2021/11/29 06:41:02;;;;;;;42.00;25.27;;;0.50;99.90;;;;;;4957541;28;20063;-70
2021/11/29 06:43:29;;;;;;;42.58;24.55;;;0.60;99.90;;;;;;4963589;28;20146;-71
2021/11/29 06:45:56;;;;;;;39.88;24.27;;;0.60;99.90;;;;;;4960911;28;20224;-69
2021/11/29 06:48:23;;;;;;;45.13;26.23;;;0.50;99.90;;;;;;4959560;28;20071;-69
2021/11/29 06:50:52;;;;;;;39.38;22.85;;;0.60;99.90;;;;;;4960016;28;20146;-68
2021/11/29 06:53:19;;;;;;;45.22;25.73;;;0.60;99.90;;;;;;4960366;28;20380;-71
2021/11/29 06:55:47;;;;;;;40.22;25.17;;;0.50;99.90;;;;;;4960723;28;20047;-69
2021/11/29 06:58:14;;;;;;;41.95;23.80;;;0.50;99.90;;;;;;4944009;28;20061;-67
2021/11/29 07:00:42;;;;;;;51.80;26.02;;;0.50;99.90;;;;;;4960975;28;20055;-69
2021/11/29 07:03:09;;;;;;;50.30;27.42;;;0.60;99.90;;;;;;4961065;28;20047;-70
2021/11/29 07:05:36;;;;;;;47.15;27.08;;;0.60;99.90;;;;;;4960376;28;20062;-69
2021/11/29 07:08:03;;;;;;;49.53;27.95;;;0.60;99.90;;;;;;4940592;28;20067;-70
2021/11/29 07:10:31;;;;;;;48.22;28.23;;;0.60;99.90;;;;;;4960357;28;20160;-69
2021/11/29 07:12:59;;;;;;;44.17;27.00;;;0.60;99.90;;;;;;4958576;28;20055;-70
2021/11/29 07:15:26;;;;;;;53.85;28.35;;;0.60;99.90;;;;;;4956315;28;20051;-70
2021/11/29 07:17:53;;;;;;;49.75;29.40;;;0.60;99.90;;;;;;4970651;28;20340;-69
2021/11/29 07:20:20;;;;;;;52.03;28.85;;;0.60;99.90;;;;;;4955169;28;20535;-68
2021/11/29 07:22:47;;;;;;;55.60;29.40;;;0.60;99.90;;;;;;4961775;28;20049;-67
2021/11/29 07:25:15;;;;;;;55.70;29.98;;;0.60;99.90;;;;;;4959239;28;20047;-68
2021/11/29 07:27:42;;;;;;;56.35;31.55;;;0.60;99.90;;;;;;4957586;28;20054;-69
2021/11/29 07:30:11;;;;;;;57.33;32.72;;;0.60;99.90;;;;;;4956543;28;20055;-68
2021/11/29 07:32:38;;;;;;;52.60;31.52;;;0.50;99.90;;;;;;4962109;28;20146;-69
2021/11/29 07:35:06;;;;;;;52.28;31.40;;;0.50;99.90;;;;;;4962420;28;20533;-70
2021/11/29 07:37:33;;;;;;;53.25;29.88;;;0.50;99.90;;;;;;4956988;28;20478;-67
2021/11/29 07:40:02;;;;;;;61.60;34.10;;;0.50;99.90;;;;;;4960091;28;20038;-68
2021/11/29 07:42:30;;;;;;;58.95;32.63;;;0.50;99.90;;;;;;4960670;28;20057;-70
2021/11/29 07:44:57;;;;;;;59.40;33.47;;;0.50;99.90;;;;;;4976966;28;20050;-70
2021/11/29 07:47:25;;;;;;;57.28;31.67;;;0.40;99.90;;;;;;4961831;28;20054;-68
2021/11/29 07:49:53;;;;;;;70.15;34.95;;;0.40;99.90;;;;;;4960959;28;20057;-70
2021/11/29 07:52:20;;;;;;;57.53;33.60;;;0.50;99.90;;;;;;4944639;28;20050;-70
2021/11/29 07:54:47;;;;;;;55.10;31.77;;;0.50;99.90;;;;;;4960757;28;20093;-68
2021/11/29 07:57:16;;;;;;;57.55;33.88;;;0.60;99.90;;;;;;4958496;28;20043;-67
2021/11/29 07:59:44;;;;;;;62.92;33.97;;;0.60;99.90;;;;;;4961530;28;20066;-70
2021/11/29 08:02:18;;;;;;;59.97;33.63;;;0.70;99.90;;;;;;4961184;28;20050;-67
2021/11/29 08:04:47;;;;;;;58.15;34.90;;;0.60;99.90;;;;;;4962094;28;20065;-67
2021/11/29 08:07:16;;;;;;;63.50;34.10;;;0.60;99.90;;;;;;4958362;28;20045;-68
2021/11/29 08:09:43;;;;;;;61.30;34.45;;;0.70;99.90;;;;;;4961865;28;20069;-70
2021/11/29 08:12:11;;;;;;;70.25;38.03;;;0.60;99.90;;;;;;4962236;28;20381;-70
2021/11/29 08:14:38;;;;;;;69.38;39.72;;;0.60;99.90;;;;;;4964075;28;20397;-68
2021/11/29 08:17:05;;;;;;;70.80;38.90;;;0.60;99.90;;;;;;4977112;28;20055;-68
2021/11/29 08:19:32;;;;;;;64.35;36.72;;;0.60;99.90;;;;;;4958692;28;20499;-69
2021/11/29 08:21:59;;;;;;;79.78;41.30;;;0.60;99.90;;;;;;4942332;28;20051;-68
2021/11/29 08:24:30;;;;;;;72.68;38.67;;;0.60;99.90;;;;;;4959785;28;20058;-69
2021/11/29 08:26:57;;;;;;;69.55;38.83;;;0.60;99.90;;;;;;4961693;28;20046;-68
2021/11/29 08:29:24;;;;;;;79.28;39.58;;;0.50;99.90;;;;;;4961916;28;20057;-69
2021/11/29 08:31:51;;;;;;;75.60;37.35;;;0.50;99.90;;;;;;4964389;28;20051;-68
2021/11/29 08:34:18;;;;;;;67.53;34.75;;;0.50;99.90;;;;;;4962371;28;20054;-69
2021/11/29 08:36:45;;;;;;;79.63;41.45;;;0.50;99.90;;;;;;4961152;28;20051;-70
2021/11/29 08:39:12;;;;;;;74.07;40.10;;;0.50;99.90;;;;;;4942801;28;20113;-69
2021/11/29 08:41:39;;;;;;;77.78;40.63;;;0.50;99.90;;;;;;4963532;28;20054;-68
2021/11/29 08:44:06;;;;;;;83.38;41.95;;;0.60;99.90;;;;;;4962951;28;20054;-70
2021/11/29 08:46:33;;;;;;;79.15;41.60;;;0.60;99.90;;;;;;4963469;28;20055;-70
2021/11/29 08:49:00;;;;;;;77.20;41.53;;;0.60;99.90;;;;;;4962118;28;20354;-69
2021/11/29 08:51:27;;;;;;;79.07;41.42;;;0.70;99.90;;;;;;4960358;28;20046;-68
2021/11/29 08:53:54;;;;;;;61.63;36.15;;;0.80;99.90;;;;;;4962912;28;20057;-69
2021/11/29 08:56:22;;;;;;;63.97;36.55;;;0.80;99.90;;;;;;4962409;28;20057;-69
2021/11/29 08:58:48;;;;;;;62.67;35.90;;;0.90;99.90;;;;;;4944440;28;20058;-70
2021/11/29 09:01:15;;;;;;;64.70;36.85;;;0.90;99.90;;;;;;4963077;28;20131;-69
2021/11/29 09:03:43;;;;;;;58.10;35.83;;;0.90;99.90;;;;;;4963146;28;20145;-69
2021/11/29 09:06:09;;;;;;;57.22;35.25;;;0.90;99.90;;;;;;4944133;28;20521;-69
2021/11/29 09:08:38;;;;;;;54.50;33.58;;;0.90;99.90;;;;;;4944388;28;20141;-70
2021/11/29 09:11:05;;;;;;;61.92;34.55;;;0.90;99.90;;;;;;4946095;28;20286;-71
2021/11/29 09:13:44;;;;;;;66.05;33.95;;;0.90;99.90;;;;;;4962418;28;20059;-70
2021/11/29 09:16:13;;;;;;;72.38;33.47;;;0.90;99.90;;;;;;4961105;28;20442;-70
2021/11/29 09:18:42;;;;;;;66.07;36.33;;;0.80;99.90;;;;;;4957320;28;20054;-70
2021/11/29 09:21:11;;;;;;;70.35;37.03;;;0.90;99.90;;;;;;4957380;28;20407;-70
2021/11/29 09:23:41;;;;;;;68.88;36.67;;;0.90;99.90;;;;;;4960892;28;20511;-67
2021/11/29 09:26:08;;;;;;;70.95;37.28;;;0.90;99.90;;;;;;4977034;28;20051;-69
2021/11/29 09:28:38;;;;;;;71.32;37.72;;;0.90;99.90;;;;;;4959771;28;20082;-71
2021/11/29 09:31:05;;;;;;;72.20;37.53;;;0.90;99.90;;;;;;4960686;28;20058;-69
2021/11/29 09:33:34;;;;;;;87.50;42.67;;;1.00;99.90;;;;;;4962455;28;20113;-69
2021/11/29 09:36:02;;;;;;;91.40;40.72;;;1.00;99.90;;;;;;4959984;28;20421;-69
2021/11/29 09:38:29;;;;;;;70.20;36.90;;;1.00;99.90;;;;;;4960120;28;20065;-70
2021/11/29 09:40:56;;;;;;;66.72;36.15;;;1.00;99.90;;;;;;4940382;28;20571;-69
2021/11/29 09:43:22;;;;;;;92.55;37.97;;;0.90;99.90;;;;;;4960376;28;20053;-70
2021/11/29 09:45:52;;;;;;;69.20;34.75;;;1.00;99.90;;;;;;4942207;28;20060;-70
2021/11/29 09:48:20;;;;;;;76.50;36.95;;;1.00;99.90;;;;;;4961736;28;20582;-71
2021/11/29 09:50:54;;;;;;;70.95;39.10;;;1.00;99.90;;;;;;4957357;28;20054;-68
2021/11/29 09:53:23;;;;;;;57.08;33.03;;;1.00;99.90;;;;;;4943921;28;20046;-67
2021/11/29 09:55:51;;;;;;;51.30;31.65;;;1.10;99.90;;;;;;4960279;28;20078;-69
2021/11/29 09:58:18;;;;;;;52.70;31.45;;;1.10;99.90;;;;;;4976025;28;20042;-69
2021/11/29 10:00:49;;;;;;;58.30;33.35;;;1.00;99.90;;;;;;4974029;28;20054;-69
2021/11/29 10:03:17;;;;;;;70.15;32.83;;;1.20;99.90;;;;;;4994943;28;20043;-68
2021/11/29 10:05:45;;;;;;;56.78;33.33;;;1.20;99.90;;;;;;4960090;28;20055;-68
2021/11/29 10:08:31;;;;;;;50.95;30.98;;;1.20;99.90;;;;;;4959800;28;20054;-70
2021/11/29 10:11:19;;;;;;;53.38;31.50;;;1.20;99.90;;;;;;4954796;28;20410;-69
2021/11/29 10:13:47;;;;;;;52.85;30.13;;;1.30;99.90;;;;;;4941505;29;20047;-68
2021/11/29 10:16:42;;;;;;;51.10;30.25;;;1.30;99.90;;;;;;4941274;28;20142;-68
2021/11/29 10:19:18;;;;;;;52.53;28.92;;;1.30;99.90;;;;;;4947363;28;20610;-68
2021/11/29 10:21:45;;;;;;;98.10;33.20;;;1.20;99.90;;;;;;4953324;28;20468;-69
2021/11/29 10:24:16;;;;;;;63.47;31.30;;;1.20;99.90;;;;;;4942765;28;20530;-68
2021/11/29 10:26:48;;;;;;;67.78;32.22;;;1.00;99.90;;;;;;4960425;28;20051;-69
2021/11/29 10:29:16;;;;;;;70.05;34.65;;;1.10;99.90;;;;;;4956723;28;20053;-69
2021/11/29 10:31:53;;;;;;;69.93;35.05;;;1.10;99.90;;;;;;4958492;28;20050;-68
2021/11/29 10:34:23;;;;;;;96.47;36.75;;;1.10;99.90;;;;;;4960560;28;20400;-69
2021/11/29 10:36:53;;;;;;;118.82;38.05;;;1.10;99.90;;;;;;4941009;28;20054;-68
2021/11/29 10:39:24;;;;;;;156.70;42.55;;;1.10;99.90;;;;;;4957930;28;20169;-68
2021/11/29 10:41:57;;;;;;;211.38;50.88;;;1.00;99.90;;;;;;4957985;28;20054;-71
2021/11/29 10:44:35;;;;;;;150.07;46.55;;;1.10;99.90;;;;;;4960448;28;20566;-68
2021/11/29 10:47:06;;;;;;;223.65;51.05;;;1.10;99.90;;;;;;4957182;28;20142;-69
2021/11/29 10:49:37;;;;;;;178.13;44.55;;;1.10;99.90;;;;;;4941642;28;20445;-70
2021/11/29 10:52:05;;;;;;;101.75;36.30;;;1.00;99.90;;;;;;4960234;28;20051;-69
2021/11/29 10:54:34;;;;;;;81.03;33.10;;;1.00;99.90;;;;;;4961350;28;20059;-69
2021/11/29 10:57:03;;;;;;;81.85;38.45;;;1.00;99.90;;;;;;4974378;28;20152;-69
2021/11/29 10:59:37;;;;;;;53.25;28.23;;;1.10;99.90;;;;;;4958174;28;20362;-70
2021/11/29 11:02:09;;;;;;;45.63;23.95;;;1.20;99.90;;;;;;4955840;28;20538;-68
2021/11/29 11:04:45;;;;;;;42.90;23.60;;;1.10;99.90;;;;;;4957473;28;20070;-66
2021/11/29 11:07:22;;;;;;;48.22;24.33;;;1.20;99.90;;;;;;4960834;28;20043;-68
2021/11/29 11:09:51;;;;;;;43.85;21.98;;;1.20;99.90;;;;;;4959096;28;20043;-68
2021/11/29 11:12:18;;;;;;;48.88;24.13;;;1.20;99.90;;;;;;4960193;28;20511;-69
2021/11/29 11:14:53;;;;;;;38.08;21.08;;;1.20;99.90;;;;;;4961787;28;20051;-68
2021/11/29 11:17:40;;;;;;;41.13;21.58;;;1.20;99.90;;;;;;4943565;28;20074;-67
2021/11/29 11:20:13;;;;;;;31.52;17.77;;;1.30;99.90;;;;;;4955786;28;20378;-68
2021/11/29 11:22:44;;;;;;;32.22;17.15;;;1.30;99.90;;;;;;4960507;28;20047;-70
2021/11/29 11:25:14;;;;;;;34.97;19.98;;;1.20;99.90;;;;;;4976487;28;20047;-69
2021/11/29 11:27:44;;;;;;;33.25;18.67;;;1.20;99.90;;;;;;4961001;28;20055;-67
2021/11/29 11:30:16;;;;;;;27.13;16.20;;;1.20;99.90;;;;;;4961625;28;20146;-68
2021/11/29 11:32:49;;;;;;;28.02;16.83;;;1.20;99.90;;;;;;4941654;28;20531;-67
2021/11/29 11:35:22;;;;;;;22.63;14.55;;;1.30;99.90;;;;;;4933778;28;20074;-68
2021/11/29 11:37:52;;;;;;;22.77;13.98;;;1.20;99.90;;;;;;4942447;28;20369;-68
2021/11/29 11:40:32;;;;;;;26.70;14.60;;;1.20;99.90;;;;;;4943132;28;20419;-67
2021/11/29 11:43:00;;;;;;;24.60;15.82;;;1.20;99.90;;;;;;4957890;28;20051;-68
2021/11/29 11:45:29;;;;;;;25.90;15.80;;;1.10;99.90;;;;;;4937773;28;20050;-69
2021/11/29 11:47:59;;;;;;;27.88;17.50;;;1.20;99.90;;;;;;4944413;28;20039;-69
2021/11/29 11:50:36;;;;;;;25.77;16.55;;;1.20;99.90;;;;;;4942946;28;20061;-70
2021/11/29 11:53:05;;;;;;;26.65;17.15;;;1.30;99.90;;;;;;4945277;28;20051;-70
2021/11/29 11:55:36;;;;;;;30.95;18.77;;;1.30;99.90;;;;;;4960888;28;20047;-71
2021/11/29 11:58:14;;;;;;;35.17;20.35;;;1.30;99.90;;;;;;4960179;28;20467;-71
2021/11/29 12:00:49;;;;;;;41.63;24.02;;;1.30;99.90;;;;;;4961659;28;20051;-72
2021/11/29 12:03:33;;;;;;;34.22;20.42;;;1.30;99.90;;;;;;4961423;28;20050;-70
2021/11/29 12:06:03;;;;;;;33.70;17.92;;;1.30;99.90;;;;;;4957388;28;20523;-71
2021/11/29 12:08:48;;;;;;;34.53;19.13;;;1.30;99.90;;;;;;4976276;28;20138;-69
2021/11/29 12:11:29;;;;;;;33.47;19.92;;;1.30;99.90;;;;;;4944869;28;20133;-72
2021/11/29 12:14:19;;;;;;;38.95;20.45;;;1.20;99.90;;;;;;4960929;28;20152;-69
2021/11/29 12:16:52;;;;;;;37.28;20.45;;;1.20;99.90;;;;;;4958882;28;20173;-71
2021/11/29 12:19:28;;;;;;;37.83;21.08;;;1.30;99.90;;;;;;4959098;28;20245;-72
2021/11/29 12:22:15;;;;;;;47.22;23.20;;;1.30;99.90;;;;;;4971940;28;20070;-71
2021/11/29 12:24:50;;;;;;;77.07;27.50;;;1.30;99.90;;;;;;4945325;28;20133;-71
2021/11/29 12:27:17;;;;;;;46.58;24.42;;;1.20;99.90;;;;;;4959498;28;20324;-70
2021/11/29 12:29:48;;;;;;;46.33;24.05;;;1.20;99.90;;;;;;4961347;28;20057;-71
2021/11/29 12:32:18;;;;;;;45.65;23.58;;;1.20;99.90;;;;;;4960429;28;20050;-70
2021/11/29 12:34:48;;;;;;;49.78;24.65;;;1.30;99.90;;;;;;4960205;28;20054;-70
2021/11/29 12:37:27;;;;;;;49.58;25.65;;;1.40;99.90;;;;;;4942615;28;20057;-71
2021/11/29 12:40:14;;;;;;;50.85;26.52;;;1.40;99.90;;;;;;4960768;28;20145;-71
2021/11/29 12:42:42;;;;;;;43.58;25.50;;;1.40;99.90;;;;;;4958339;28;20515;-69
2021/11/29 12:45:24;;;;;;;36.72;22.58;;;1.40;99.90;;;;;;4960449;28;20051;-71